Time;durP1;ratioP1;P1;durP2;ratioP2;P2;SDS_P1;SDS_P2;PMS_P1;PMS_P2;Temp;Humidity;BMP_temperature;BMP_pressure;BME280_temperature;BME280_humidity;BME280_pressure;Samples;Min_cycle;Max_cycle;Signal;HPM_P1;HPM_P2
2022/11/10 00:00:36;;;;;;;7.73;1.77;;;;;;;;;;5020136;28;20030;-76
2022/11/10 00:03:06;;;;;;;10.13;2.00;;;;;;;;;;5017102;28;20443;-76
2022/11/10 00:05:35;;;;;;;12.17;2.20;;;;;;;;;;5029449;28;20022;-76
2022/11/10 00:08:03;;;;;;;9.73;1.93;;;;;;;;;;5019568;28;20474;-75
2022/11/10 00:10:29;;;;;;;9.73;1.73;;;;;;;;;;5017026;28;20061;-76
2022/11/10 00:12:59;;;;;;;13.40;3.20;;;;;;;;;;5018219;28;20041;-75
2022/11/10 00:18:09;;;;;;;13.23;2.00;;;;;;;;;;5016280;28;20087;-76
2022/11/10 00:20:35;;;;;;;10.33;1.77;;;;;;;;;;5017888;28;20037;-77
2022/11/10 00:23:01;;;;;;;12.80;2.30;;;;;;;;;;5018817;28;20048;-76
2022/11/10 00:25:28;;;;;;;9.67;2.10;;;;;;;;;;5027258;28;20040;-76
2022/11/10 00:27:54;;;;;;;12.23;1.97;;;;;;;;;;5029884;28;20022;-76
2022/11/10 00:30:20;;;;;;;16.87;2.97;;;;;;;;;;5018366;28;20044;-76
2022/11/10 00:32:47;;;;;;;12.43;2.40;;;;;;;;;;5027093;28;20037;-76
2022/11/10 00:35:13;;;;;;;10.77;1.93;;;;;;;;;;5015684;28;20049;-76
2022/11/10 00:37:39;;;;;;;6.73;1.83;;;;;;;;;;5018571;28;20036;-76
2022/11/10 00:40:08;;;;;;;9.23;2.07;;;;;;;;;;5016735;28;20466;-76
2022/11/10 00:42:34;;;;;;;6.33;2.10;;;;;;;;;;5029645;28;20052;-75
2022/11/10 00:45:00;;;;;;;11.40;1.93;;;;;;;;;;5030209;28;20060;-76
2022/11/10 00:47:28;;;;;;;10.70;1.77;;;;;;;;;;5026676;28;21658;-76
2022/11/10 00:49:54;;;;;;;12.47;2.20;;;;;;;;;;5017793;28;20339;-75
2022/11/10 00:52:23;;;;;;;4.73;1.13;;;;;;;;;;5026916;28;20029;-76
2022/11/10 00:54:52;;;;;;;12.97;1.93;;;;;;;;;;5016070;28;20701;-76
2022/11/10 00:57:18;;;;;;;6.60;1.77;;;;;;;;;;5016408;28;20033;-76
2022/11/10 00:59:44;;;;;;;10.30;2.13;;;;;;;;;;5034660;28;20033;-76
2022/11/10 01:02:10;;;;;;;14.63;3.17;;;;;;;;;;5018110;28;20041;-76
2022/11/10 01:04:36;;;;;;;11.13;1.70;;;;;;;;;;5017191;28;20034;-77
2022/11/10 01:07:02;;;;;;;17.83;3.17;;;;;;;;;;5017997;28;20026;-76
2022/11/10 01:09:28;;;;;;;15.90;2.20;;;;;;;;;;5015095;28;20033;-76
2022/11/10 01:11:54;;;;;;;9.30;2.33;;;;;;;;;;5019853;28;20045;-76
2022/11/10 01:14:20;;;;;;;15.60;2.57;;;;;;;;;;5015406;28;20041;-75
2022/11/10 01:16:48;;;;;;;7.63;1.40;;;;;;;;;;5019215;28;20030;-76
2022/11/10 01:19:14;;;;;;;23.00;2.33;;;;;;;;;;5033818;28;20900;-76
2022/11/10 01:21:40;;;;;;;12.83;2.40;;;;;;;;;;5017342;28;20087;-77
2022/11/10 01:24:06;;;;;;;9.17;2.57;;;;;;;;;;5033218;28;20030;-76
2022/11/10 01:26:32;;;;;;;8.77;2.03;;;;;;;;;;5014618;28;20033;-75
2022/11/10 01:29:01;;;;;;;11.10;2.27;;;;;;;;;;5017762;28;20094;-76
2022/11/10 01:31:27;;;;;;;12.20;2.50;;;;;;;;;;5030854;28;20072;-76
2022/11/10 01:33:53;;;;;;;8.07;1.73;;;;;;;;;;5025637;28;20038;-75
2022/11/10 01:36:19;;;;;;;12.20;2.33;;;;;;;;;;5027249;28;20471;-76
2022/11/10 01:38:45;;;;;;;13.47;3.00;;;;;;;;;;5018238;28;20033;-76
2022/11/10 01:41:14;;;;;;;7.40;1.37;;;;;;;;;;5028465;28;20044;-76
2022/11/10 01:43:40;;;;;;;12.33;2.63;;;;;;;;;;5025781;28;21622;-76
2022/11/10 01:46:11;;;;;;;10.47;1.70;;;;;;;;;;5017931;28;20121;-76
2022/11/10 01:48:55;;;;;;;15.40;2.40;;;;;;;;;;5027230;28;20022;-76
2022/11/10 01:51:26;;;;;;;15.10;3.00;;;;;;;;;;5031041;28;20068;-76
2022/11/10 01:53:57;;;;;;;14.60;2.30;;;;;;;;;;5027170;28;20033;-76
2022/11/10 01:56:23;;;;;;;12.87;2.70;;;;;;;;;;5017522;28;20029;-76
2022/11/10 01:58:55;;;;;;;15.77;2.70;;;;;;;;;;5016871;28;20410;-75
2022/11/10 02:01:24;;;;;;;13.87;1.73;;;;;;;;;;5031410;28;20124;-76
2022/11/10 02:03:51;;;;;;;14.63;2.40;;;;;;;;;;5027474;28;20858;-76
2022/11/10 02:06:18;;;;;;;16.53;2.90;;;;;;;;;;5032123;28;20025;-77
2022/11/10 02:08:45;;;;;;;20.00;2.40;;;;;;;;;;5016007;28;20080;-76
2022/11/10 02:11:14;;;;;;;16.50;2.20;;;;;;;;;;5016697;28;20026;-75
2022/11/10 02:13:40;;;;;;;16.23;2.73;;;;;;;;;;5014266;28;20043;-76
2022/11/10 02:16:06;;;;;;;8.17;1.80;;;;;;;;;;5027456;28;20030;-76
2022/11/10 02:18:32;;;;;;;10.83;2.03;;;;;;;;;;5026421;28;20025;-76
2022/11/10 02:20:58;;;;;;;11.67;2.23;;;;;;;;;;5016149;28;20033;-76
2022/11/10 02:23:36;;;;;;;16.50;2.80;;;;;;;;;;5015467;28;20489;-77
2022/11/10 02:26:02;;;;;;;22.47;4.43;;;;;;;;;;5015905;28;20029;-76
2022/11/10 02:28:28;;;;;;;13.40;2.80;;;;;;;;;;5024348;28;20040;-76
2022/11/10 02:30:54;;;;;;;12.70;2.87;;;;;;;;;;5015264;28;20069;-76
2022/11/10 02:33:20;;;;;;;9.93;2.50;;;;;;;;;;5034381;28;20462;-76
2022/11/10 02:35:47;;;;;;;20.10;3.33;;;;;;;;;;5032309;28;20102;-76
2022/11/10 02:38:13;;;;;;;15.53;2.63;;;;;;;;;;5015434;28;20046;-75
2022/11/10 02:40:40;;;;;;;11.47;2.23;;;;;;;;;;5024154;28;20187;-76
2022/11/10 02:43:07;;;;;;;15.80;3.50;;;;;;;;;;5015473;28;20037;-76
2022/11/10 02:45:33;;;;;;;17.10;2.40;;;;;;;;;;5017254;28;20106;-77
2022/11/10 02:47:59;;;;;;;13.67;2.87;;;;;;;;;;5017591;28;20460;-76
2022/11/10 02:50:25;;;;;;;12.33;2.50;;;;;;;;;;5013951;28;20035;-75
2022/11/10 02:52:51;;;;;;;20.90;3.33;;;;;;;;;;5016990;28;20119;-76
2022/11/10 02:55:17;;;;;;;24.33;2.80;;;;;;;;;;5016797;28;20048;-76
2022/11/10 02:57:43;;;;;;;18.80;2.67;;;;;;;;;;5015579;28;20042;-76
2022/11/10 03:00:09;;;;;;;19.77;3.37;;;;;;;;;;5015717;28;20034;-75
2022/11/10 03:02:35;;;;;;;12.77;2.77;;;;;;;;;;5013470;28;20042;-77
2022/11/10 03:05:01;;;;;;;14.40;2.33;;;;;;;;;;5017290;28;20034;-76
2022/11/10 03:07:27;;;;;;;15.33;2.60;;;;;;;;;;5014725;28;20041;-75
2022/11/10 03:09:53;;;;;;;15.67;2.70;;;;;;;;;;5028563;28;20033;-75
2022/11/10 03:12:19;;;;;;;16.43;2.70;;;;;;;;;;5027119;28;20510;-77
2022/11/10 03:14:45;;;;;;;17.97;2.43;;;;;;;;;;5015069;28;20117;-76
2022/11/10 03:17:13;;;;;;;14.73;2.10;;;;;;;;;;5016423;28;20184;-77
2022/11/10 03:19:39;;;;;;;18.00;2.97;;;;;;;;;;5014785;28;20927;-77
2022/11/10 03:22:05;;;;;;;13.70;2.97;;;;;;;;;;5025393;28;20041;-75
2022/11/10 03:24:31;;;;;;;16.67;2.97;;;;;;;;;;5015261;28;20029;-76
2022/11/10 03:27:00;;;;;;;17.37;2.63;;;;;;;;;;5028264;28;20025;-76
2022/11/10 03:29:26;;;;;;;23.13;3.67;;;;;;;;;;5022776;28;20033;-76
2022/11/10 03:31:52;;;;;;;14.07;3.13;;;;;;;;;;5014485;28;20036;-75
2022/11/10 03:34:18;;;;;;;24.13;4.10;;;;;;;;;;5028819;28;20050;-76
2022/11/10 03:36:44;;;;;;;15.97;3.13;;;;;;;;;;5024424;28;20029;-76
2022/11/10 03:39:10;;;;;;;9.73;2.17;;;;;;;;;;5017471;28;20034;-75
2022/11/10 03:41:38;;;;;;;14.10;2.60;;;;;;;;;;5028603;28;20042;-76
2022/11/10 03:44:04;;;;;;;22.87;2.70;;;;;;;;;;5017771;28;20099;-76
2022/11/10 03:46:30;;;;;;;16.37;3.00;;;;;;;;;;5030651;28;21661;-77
2022/11/10 03:48:56;;;;;;;20.53;2.97;;;;;;;;;;5021016;28;20434;-76
2022/11/10 03:51:22;;;;;;;14.63;3.03;;;;;;;;;;5018336;28;20367;-77
2022/11/10 03:53:48;;;;;;;14.53;2.17;;;;;;;;;;5030165;28;20431;-75
2022/11/10 03:56:15;;;;;;;22.00;3.60;;;;;;;;;;5017249;28;20068;-76
2022/11/10 03:58:41;;;;;;;24.50;2.97;;;;;;;;;;5016676;28;20026;-76
2022/11/10 04:01:07;;;;;;;12.73;3.00;;;;;;;;;;5019050;28;20112;-76
2022/11/10 04:03:35;;;;;;;16.17;2.67;;;;;;;;;;5027220;28;20053;-76
2022/11/10 04:08:58;;;;;;;16.10;2.90;;;;;;;;;;5019564;28;20052;-75
2022/11/10 04:16:56;;;;;;;21.20;3.33;;;;;;;;;;5018692;28;20103;-74
2022/11/10 04:19:23;;;;;;;20.77;2.93;;;;;;;;;;5019799;28;20041;-76
2022/11/10 04:21:49;;;;;;;15.63;2.80;;;;;;;;;;5019240;28;20042;-77
2022/11/10 04:24:15;;;;;;;16.90;3.00;;;;;;;;;;5013179;28;20058;-75
2022/11/10 04:26:41;;;;;;;19.47;3.40;;;;;;;;;;5033895;28;20025;-76
2022/11/10 04:29:09;;;;;;;21.73;4.20;;;;;;;;;;5035384;28;20049;-76
2022/11/10 04:31:36;;;;;;;18.80;3.30;;;;;;;;;;5028611;28;20034;-76
2022/11/10 04:34:05;;;;;;;16.23;3.43;;;;;;;;;;5017532;28;20041;-75
2022/11/10 04:36:32;;;;;;;20.13;2.67;;;;;;;;;;5020715;28;20053;-75
2022/11/10 04:38:58;;;;;;;19.23;2.47;;;;;;;;;;5030566;28;20022;-76
2022/11/10 04:41:25;;;;;;;15.80;2.80;;;;;;;;;;5017001;28;20064;-76
2022/11/10 04:43:54;;;;;;;16.43;3.33;;;;;;;;;;5016799;28;20037;-75
2022/11/10 04:46:23;;;;;;;18.87;3.50;;;;;;;;;;5016568;28;20022;-76
2022/11/10 04:48:49;;;;;;;15.33;2.97;;;;;;;;;;5015648;28;20394;-77
2022/11/10 04:51:16;;;;;;;20.27;4.10;;;;;;;;;;5019193;28;20041;-76
2022/11/10 04:53:42;;;;;;;15.30;2.83;;;;;;;;;;5017681;28;20033;-77
2022/11/10 04:56:10;;;;;;;22.00;2.77;;;;;;;;;;5016301;28;20037;-76
2022/11/10 04:58:36;;;;;;;22.90;3.87;;;;;;;;;;5017946;28;20030;-76
2022/11/10 05:01:02;;;;;;;18.47;3.13;;;;;;;;;;5016706;28;20076;-76
2022/11/10 05:03:28;;;;;;;19.67;2.80;;;;;;;;;;5019845;28;20052;-76
2022/11/10 05:05:54;;;;;;;16.47;3.30;;;;;;;;;;5029976;28;20022;-76
2022/11/10 05:08:20;;;;;;;21.40;2.97;;;;;;;;;;5028380;28;20026;-76
2022/11/10 05:10:46;;;;;;;21.87;3.03;;;;;;;;;;5015395;28;20044;-76
2022/11/10 05:13:12;;;;;;;25.23;3.43;;;;;;;;;;5027801;28;20030;-76
2022/11/10 05:15:40;;;;;;;24.47;4.03;;;;;;;;;;5019938;28;20030;-77
2022/11/10 05:18:07;;;;;;;18.33;3.20;;;;;;;;;;5019854;28;20087;-76
2022/11/10 05:20:35;;;;;;;13.93;2.47;;;;;;;;;;5020565;28;20038;-76
2022/11/10 05:25:46;;;;;;;21.83;3.67;;;;;;;;;;5019850;28;20091;-76
2022/11/10 05:28:12;;;;;;;31.33;2.93;;;;;;;;;;5017546;28;20072;-76
2022/11/10 05:30:39;;;;;;;16.97;2.70;;;;;;;;;;5018256;28;20045;-75
2022/11/10 05:33:05;;;;;;;17.50;2.50;;;;;;;;;;5017931;28;20030;-77
2022/11/10 05:35:32;;;;;;;22.00;4.20;;;;;;;;;;5016598;28;20030;-77
2022/11/10 05:37:58;;;;;;;32.37;3.57;;;;;;;;;;5026179;28;20340;-76
2022/11/10 05:40:24;;;;;;;14.50;2.30;;;;;;;;;;5020128;28;20049;-76
2022/11/10 05:42:53;;;;;;;20.03;3.70;;;;;;;;;;5016467;28;20033;-76
2022/11/10 05:45:21;;;;;;;17.27;3.20;;;;;;;;;;5016891;28;20104;-77
2022/11/10 05:47:47;;;;;;;23.40;4.00;;;;;;;;;;5030201;28;20013;-76
2022/11/10 05:50:13;;;;;;;21.47;3.33;;;;;;;;;;5015321;28;20037;-76
2022/11/10 05:52:41;;;;;;;16.07;3.30;;;;;;;;;;5017044;28;20037;-76
2022/11/10 05:55:07;;;;;;;22.30;3.30;;;;;;;;;;5016516;28;20030;-76
2022/11/10 05:57:33;;;;;;;16.63;2.93;;;;;;;;;;5025558;28;20026;-76
2022/11/10 05:59:59;;;;;;;22.63;3.37;;;;;;;;;;5017549;28;20021;-76
2022/11/10 06:02:25;;;;;;;20.40;3.53;;;;;;;;;;5027252;28;20030;-75
2022/11/10 06:04:51;;;;;;;21.57;3.57;;;;;;;;;;5016816;28;20028;-76
2022/11/10 06:07:17;;;;;;;27.57;3.23;;;;;;;;;;5015977;28;20017;-76
2022/11/10 06:09:44;;;;;;;25.57;3.90;;;;;;;;;;5029955;28;20049;-76
2022/11/10 06:12:10;;;;;;;10.50;3.00;;;;;;;;;;5027903;28;20120;-76
2022/11/10 06:14:36;;;;;;;18.77;3.60;;;;;;;;;;5025457;28;20037;-77
2022/11/10 06:17:02;;;;;;;19.23;3.90;;;;;;;;;;5017396;28;20040;-76
2022/11/10 06:19:28;;;;;;;22.53;4.63;;;;;;;;;;5030447;28;20038;-77
2022/11/10 06:21:54;;;;;;;29.40;4.50;;;;;;;;;;5017377;28;20060;-76
2022/11/10 06:24:20;;;;;;;19.43;4.50;;;;;;;;;;5016624;28;20025;-76
2022/11/10 06:26:46;;;;;;;21.80;4.23;;;;;;;;;;5017012;28;20430;-76
2022/11/10 06:29:12;;;;;;;23.70;4.37;;;;;;;;;;5018032;28;20041;-76
2022/11/10 06:31:38;;;;;;;19.70;3.27;;;;;;;;;;5016672;28;20045;-76
2022/11/10 06:34:04;;;;;;;19.27;4.70;;;;;;;;;;5017766;28;20046;-76
2022/11/10 06:36:30;;;;;;;14.90;3.20;;;;;;;;;;5034789;28;20124;-76
2022/11/10 06:38:56;;;;;;;16.67;4.03;;;;;;;;;;5026667;28;20052;-76
2022/11/10 06:41:22;;;;;;;20.87;4.13;;;;;;;;;;5013849;28;20439;-75
2022/11/10 06:43:51;;;;;;;28.67;3.77;;;;;;;;;;5027475;28;20030;-76
2022/11/10 06:46:17;;;;;;;21.77;4.00;;;;;;;;;;5029272;28;20026;-76
2022/11/10 06:48:43;;;;;;;24.90;4.43;;;;;;;;;;5015679;28;20022;-75
2022/11/10 06:51:09;;;;;;;17.77;3.73;;;;;;;;;;5018421;28;20155;-77
2022/11/10 06:53:35;;;;;;;23.83;3.90;;;;;;;;;;5014693;28;20034;-75
2022/11/10 06:56:01;;;;;;;28.67;5.07;;;;;;;;;;5011644;28;20045;-75
2022/11/10 06:58:27;;;;;;;31.10;4.73;;;;;;;;;;5016855;28;20049;-76
2022/11/10 07:00:53;;;;;;;30.40;5.13;;;;;;;;;;5014965;28;20037;-76
2022/11/10 07:03:19;;;;;;;19.90;4.43;;;;;;;;;;5026448;28;20037;-76
2022/11/10 07:05:45;;;;;;;22.37;4.70;;;;;;;;;;5015350;28;20033;-76
2022/11/10 07:08:14;;;;;;;21.90;5.83;;;;;;;;;;5025443;28;20561;-76
2022/11/10 07:10:41;;;;;;;40.20;11.40;;;;;;;;;;5027568;28;20482;-75
2022/11/10 07:13:07;;;;;;;36.77;9.90;;;;;;;;;;5029559;28;20168;-76
2022/11/10 07:15:36;;;;;;;33.80;6.63;;;;;;;;;;5031480;28;20216;-76
2022/11/10 07:18:03;;;;;;;22.60;4.93;;;;;;;;;;5029552;28;20060;-77
2022/11/10 07:20:30;;;;;;;23.80;4.03;;;;;;;;;;5032018;28;20434;-77
2022/11/10 07:22:57;;;;;;;22.77;3.97;;;;;;;;;;5023346;28;20033;-76
2022/11/10 07:25:23;;;;;;;21.73;6.27;;;;;;;;;;5019252;28;20036;-75
2022/11/10 07:27:56;;;;;;;20.30;4.90;;;;;;;;;;5031562;28;20033;-77
2022/11/10 07:30:22;;;;;;;20.50;4.90;;;;;;;;;;5018580;28;20029;-77
2022/11/10 07:32:57;;;;;;;31.93;8.77;;;;;;;;;;5019261;28;20037;-77
2022/11/10 07:35:23;;;;;;;31.70;7.67;;;;;;;;;;5032529;28;20030;-75
2022/11/10 07:37:51;;;;;;;31.17;5.53;;;;;;;;;;5018082;28;20037;-75
2022/11/10 07:40:17;;;;;;;17.33;4.20;;;;;;;;;;5031657;28;20435;-76
2022/11/10 07:42:43;;;;;;;18.87;5.60;;;;;;;;;;5018702;28;20455;-76
2022/11/10 07:45:10;;;;;;;20.20;5.33;;;;;;;;;;5020648;28;20026;-76
2022/11/10 07:47:36;;;;;;;29.73;4.97;;;;;;;;;;5030059;28;20048;-76
2022/11/10 07:50:02;;;;;;;16.60;4.10;;;;;;;;;;5030471;28;20470;-76
2022/11/10 07:52:28;;;;;;;27.20;4.43;;;;;;;;;;5019873;28;20038;-75
2022/11/10 07:54:54;;;;;;;19.33;3.77;;;;;;;;;;5021293;28;20033;-76
2022/11/10 07:57:22;;;;;;;22.07;4.17;;;;;;;;;;5017787;28;20029;-75
2022/11/10 07:59:48;;;;;;;21.90;3.37;;;;;;;;;;5029515;28;20095;-76
2022/11/10 08:02:14;;;;;;;25.30;4.80;;;;;;;;;;5019337;28;20446;-75
2022/11/10 08:04:40;;;;;;;28.93;4.90;;;;;;;;;;5018625;28;20347;-76
2022/11/10 08:07:06;;;;;;;36.03;6.23;;;;;;;;;;5018720;28;20037;-75
2022/11/10 08:09:32;;;;;;;28.70;5.30;;;;;;;;;;5018743;28;20033;-75
2022/11/10 08:11:58;;;;;;;17.97;3.43;;;;;;;;;;5015737;28;20037;-76
2022/11/10 08:14:24;;;;;;;18.20;3.90;;;;;;;;;;5016014;28;20040;-75
2022/11/10 08:16:51;;;;;;;13.37;3.30;;;;;;;;;;5017011;28;20069;-76
2022/11/10 08:19:17;;;;;;;18.53;3.80;;;;;;;;;;5029139;28;20091;-76
2022/11/10 08:21:45;;;;;;;24.90;3.77;;;;;;;;;;5017256;28;20045;-75
2022/11/10 08:24:11;;;;;;;27.87;3.70;;;;;;;;;;5033973;28;20334;-76
2022/11/10 08:26:37;;;;;;;10.90;2.63;;;;;;;;;;5027897;28;20032;-74
2022/11/10 08:29:03;;;;;;;15.53;3.00;;;;;;;;;;5017201;28;20030;-75
2022/11/10 08:31:34;;;;;;;13.97;3.17;;;;;;;;;;5030557;28;20036;-76
2022/11/10 08:34:02;;;;;;;18.90;4.47;;;;;;;;;;5015565;28;21708;-76
2022/11/10 08:36:30;;;;;;;13.23;2.80;;;;;;;;;;5026923;28;20034;-76
2022/11/10 08:38:56;;;;;;;16.20;2.60;;;;;;;;;;5018487;28;20022;-77
2022/11/10 08:41:22;;;;;;;15.53;3.20;;;;;;;;;;5019702;28;20088;-75
2022/11/10 08:43:48;;;;;;;17.50;3.60;;;;;;;;;;5020357;28;20029;-75
2022/11/10 08:46:15;;;;;;;10.63;2.43;;;;;;;;;;5025642;28;20044;-75
2022/11/10 08:48:41;;;;;;;11.97;2.73;;;;;;;;;;5016526;28;20022;-75
2022/11/10 08:51:07;;;;;;;11.97;2.23;;;;;;;;;;5017611;28;20033;-76
2022/11/10 08:53:33;;;;;;;8.93;1.90;;;;;;;;;;5017732;28;20033;-76
2022/11/10 08:55:59;;;;;;;22.73;2.40;;;;;;;;;;5027682;28;20088;-75
2022/11/10 08:58:26;;;;;;;15.47;2.40;;;;;;;;;;5017161;28;20076;-76
2022/11/10 09:00:52;;;;;;;13.63;3.17;;;;;;;;;;5031072;28;20038;-77
2022/11/10 09:03:18;;;;;;;15.07;2.70;;;;;;;;;;5017578;28;20029;-76
2022/11/10 09:05:45;;;;;;;15.70;2.73;;;;;;;;;;5020388;28;20072;-76
2022/11/10 09:08:11;;;;;;;12.00;2.17;;;;;;;;;;5017278;28;20092;-76
2022/11/10 09:10:39;;;;;;;13.67;2.77;;;;;;;;;;5017049;28;20113;-76
2022/11/10 09:13:05;;;;;;;22.57;2.77;;;;;;;;;;5024343;28;20038;-76
2022/11/10 09:15:31;;;;;;;21.80;2.47;;;;;;;;;;5015425;28;20156;-75
2022/11/10 09:17:58;;;;;;;13.40;2.30;;;;;;;;;;5010864;28;20033;-77
2022/11/10 09:20:25;;;;;;;12.57;2.87;;;;;;;;;;5027470;28;20029;-75
2022/11/10 09:22:51;;;;;;;15.10;3.13;;;;;;;;;;5020488;28;20116;-76
2022/11/10 09:25:17;;;;;;;18.70;4.13;;;;;;;;;;5018151;28;20029;-77
2022/11/10 09:27:45;;;;;;;19.77;2.47;;;;;;;;;;5018686;28;20335;-76
2022/11/10 09:30:11;;;;;;;12.73;3.40;;;;;;;;;;5018447;28;20025;-77
2022/11/10 09:32:38;;;;;;;11.40;2.80;;;;;;;;;;5028276;28;20501;-76
2022/11/10 09:35:04;;;;;;;22.90;3.00;;;;;;;;;;5023754;28;20052;-76
2022/11/10 09:37:30;;;;;;;13.73;2.60;;;;;;;;;;5015860;28;20041;-77
2022/11/10 09:39:56;;;;;;;14.50;3.93;;;;;;;;;;5017169;28;21747;-77
2022/11/10 09:42:26;;;;;;;15.13;3.90;;;;;;;;;;5026011;28;20402;-76
2022/11/10 09:45:19;;;;;;;11.50;3.13;;;;;;;;;;5029072;28;20120;-76
2022/11/10 09:48:04;;;;;;;24.17;3.22;;;;;;;;;;5027159;28;20056;-76
2022/11/10 09:50:48;;;;;;;19.67;2.83;;;;;;;;;;5016016;28;20033;-77
2022/11/10 09:53:33;;;;;;;20.80;3.00;;;;;;;;;;5016322;28;20103;-74
2022/11/10 09:56:11;;;;;;;15.53;2.10;;;;;;;;;;5024340;28;20048;-75
2022/11/10 09:58:39;;;;;;;18.77;2.57;;;;;;;;;;5014946;28;20040;-76
2022/11/10 10:01:17;;;;;;;14.57;2.57;;;;;;;;;;5030126;28;20100;-76
2022/11/10 10:03:48;;;;;;;12.30;2.50;;;;;;;;;;5029043;28;20064;-77
2022/11/10 10:06:18;;;;;;;17.50;2.37;;;;;;;;;;5017887;28;20034;-77
2022/11/10 10:08:44;;;;;;;16.10;2.90;;;;;;;;;;5017011;28;20029;-76
2022/11/10 10:11:10;;;;;;;14.03;2.77;;;;;;;;;;5015616;28;20045;-77
2022/11/10 10:13:58;;;;;;;21.87;2.97;;;;;;;;;;5015861;28;20057;-77
2022/11/10 10:16:24;;;;;;;19.53;3.73;;;;;;;;;;5014279;28;20029;-76
2022/11/10 10:18:50;;;;;;;13.60;2.33;;;;;;;;;;5014808;28;20038;-77
2022/11/10 10:21:25;;;;;;;12.33;2.33;;;;;;;;;;5024859;28;20033;-77
2022/11/10 10:23:53;;;;;;;12.40;2.10;;;;;;;;;;5015683;28;20033;-76
2022/11/10 10:26:22;;;;;;;15.73;2.60;;;;;;;;;;5013565;28;20026;-76
2022/11/10 10:28:49;;;;;;;19.77;3.03;;;;;;;;;;5027404;28;20133;-76
2022/11/10 10:31:22;;;;;;;14.90;3.07;;;;;;;;;;5015309;28;20033;-76
2022/11/10 10:33:51;;;;;;;14.33;2.33;;;;;;;;;;5017651;28;20365;-76
2022/11/10 10:36:19;;;;;;;17.03;2.33;;;;;;;;;;5026907;28;20096;-75
2022/11/10 10:38:47;;;;;;;14.83;2.80;;;;;;;;;;5013746;28;20063;-76
2022/11/10 10:41:15;;;;;;;12.90;1.80;;;;;;;;;;5014303;28;20033;-76
2022/11/10 10:43:45;;;;;;;13.77;2.60;;;;;;;;;;5031107;28;20066;-77
2022/11/10 10:46:18;;;;;;;10.63;2.47;;;;;;;;;;5027167;28;20021;-77
2022/11/10 10:48:46;;;;;;;14.55;2.63;;;;;;;;;;5022087;28;20025;-76
2022/11/10 10:51:26;;;;;;;9.67;2.13;;;;;;;;;;5016195;28;20018;-76
2022/11/10 10:53:52;;;;;;;15.70;2.00;;;;;;;;;;5017894;28;20082;-76
2022/11/10 10:56:27;;;;;;;16.33;2.30;;;;;;;;;;5012801;28;20041;-76
2022/11/10 10:59:16;;;;;;;10.87;2.00;;;;;;;;;;5015312;28;20425;-75
2022/11/10 11:01:43;;;;;;;15.63;2.90;;;;;;;;;;5015105;28;20117;-76
2022/11/10 11:04:28;;;;;;;16.07;2.33;;;;;;;;;;5023222;28;20025;-76
2022/11/10 11:07:02;;;;;;;13.90;3.20;;;;;;;;;;5020726;28;20092;-76
2022/11/10 11:09:29;;;;;;;14.93;2.67;;;;;;;;;;5015953;28;20018;-77
2022/11/10 11:12:03;;;;;;;18.00;2.40;;;;;;;;;;5027537;28;20033;-76
2022/11/10 11:14:30;;;;;;;12.32;2.90;;;;;;;;;;5016453;28;20100;-76
2022/11/10 11:16:58;;;;;;;10.35;2.80;;;;;;;;;;5025453;28;20030;-77
2022/11/10 11:19:27;;;;;;;18.45;3.03;;;;;;;;;;5016360;28;20021;-77
2022/11/10 11:22:11;;;;;;;11.88;1.98;;;;;;;;;;5015902;28;20033;-76
2022/11/10 11:24:46;;;;;;;6.15;1.73;;;;;;;;;;5024333;28;20099;-74
2022/11/10 11:27:30;;;;;;;8.98;2.08;;;;;;;;;;5013513;28;20458;-76
2022/11/10 11:30:09;;;;;;;16.85;2.33;;;;;;;;;;5017051;28;20029;-76
2022/11/10 11:32:44;;;;;;;9.45;2.00;;;;;;;;;;5016975;28;20042;-77
2022/11/10 11:35:18;;;;;;;20.70;2.72;;;;;;;;;;5016168;28;20040;-77
2022/11/10 11:38:08;;;;;;;11.80;2.45;;;;;;;;;;5026362;28;20066;-75
2022/11/10 11:40:37;;;;;;;11.02;2.33;;;;;;;;;;5013067;28;20462;-76
2022/11/10 11:43:05;;;;;;;8.18;1.63;;;;;;;;;;5015101;28;20033;-76
2022/11/10 11:45:34;;;;;;;13.32;1.92;;;;;;;;;;5025969;28;20026;-76
2022/11/10 11:48:19;;;;;;;12.80;2.28;;;;;;;;;;5026422;28;20033;-77
2022/11/10 11:50:50;;;;;;;13.43;2.08;;;;;;;;;;5016430;28;20026;-76
2022/11/10 11:53:32;;;;;;;12.33;2.63;;;;;;;;;;5023468;28;20445;-76
2022/11/10 11:56:04;;;;;;;11.75;2.10;;;;;;;;;;5031024;28;20056;-77
2022/11/10 11:58:56;;;;;;;15.63;2.40;;;;;;;;;;5011528;28;20042;-77
2022/11/10 12:01:29;;;;;;;10.05;2.17;;;;;;;;;;5010900;28;20034;-75
2022/11/10 12:03:54;;;;;;;19.55;2.50;;;;;;;;;;5018155;28;20091;-76
2022/11/10 12:06:23;;;;;;;12.60;2.60;;;;;;;;;;5016861;28;20025;-76
2022/11/10 12:09:08;;;;;;;13.15;2.70;;;;;;;;;;5018172;28;20029;-76
2022/11/10 12:11:42;;;;;;;9.77;1.50;;;;;;;;;;5019174;28;20021;-76
2022/11/10 12:14:17;;;;;;;10.50;1.98;;;;;;;;;;5032848;28;20029;-76
2022/11/10 12:16:47;;;;;;;10.57;2.08;;;;;;;;;;5017142;28;20095;-76
2022/11/10 12:19:13;;;;;;;7.85;2.45;;;;;;;;;;5018642;28;20029;-76
2022/11/10 12:21:43;;;;;;;5.90;1.30;;;;;;;;;;5032031;28;20033;-76
2022/11/10 12:24:24;;;;;;;9.60;1.45;;;;;;;;;;5018161;28;20034;-76
2022/11/10 12:26:50;;;;;;;10.10;2.28;;;;;;;;;;5027611;28;20121;-77
2022/11/10 12:29:28;;;;;;;12.63;2.05;;;;;;;;;;5028241;28;20037;-76
2022/11/10 12:32:14;;;;;;;8.30;1.25;;;;;;;;;;5026650;28;20029;-76
2022/11/10 12:34:42;;;;;;;7.97;1.42;;;;;;;;;;5011815;28;20474;-76
2022/11/10 12:37:14;;;;;;;19.52;2.75;;;;;;;;;;5030487;28;20033;-76
2022/11/10 12:40:06;;;;;;;9.20;1.75;;;;;;;;;;5015914;28;20034;-77
2022/11/10 12:42:37;;;;;;;7.10;1.13;;;;;;;;;;5022019;28;20065;-76
2022/11/10 12:45:24;;;;;;;10.27;1.63;;;;;;;;;;5018483;28;20411;-75
2022/11/10 12:47:50;;;;;;;9.23;1.42;;;;;;;;;;5015397;28;20025;-76
2022/11/10 12:50:16;;;;;;;9.27;2.13;;;;;;;;;;5017412;28;20029;-76
2022/11/10 12:52:51;;;;;;;7.45;1.52;;;;;;;;;;5016715;28;20104;-76
2022/11/10 12:55:20;;;;;;;10.82;1.60;;;;;;;;;;5017711;28;20096;-77
2022/11/10 12:57:47;;;;;;;9.23;1.50;;;;;;;;;;5025131;28;20041;-77
2022/11/10 13:00:19;;;;;;;7.55;1.60;;;;;;;;;;5016754;28;20914;-77
2022/11/10 13:02:46;;;;;;;7.30;1.75;;;;;;;;;;5015518;28;20121;-76
2022/11/10 13:05:15;;;;;;;8.50;1.98;;;;;;;;;;5014993;28;20113;-77
2022/11/10 13:07:42;;;;;;;8.55;1.38;;;;;;;;;;5032998;28;20056;-76
2022/11/10 13:10:15;;;;;;;9.45;1.30;;;;;;;;;;5025188;28;20022;-77
2022/11/10 13:13:00;;;;;;;6.60;1.33;;;;;;;;;;5016559;28;20026;-77
2022/11/10 13:15:35;;;;;;;6.30;1.30;;;;;;;;;;5016586;28;20029;-75
2022/11/10 13:18:01;;;;;;;7.97;1.08;;;;;;;;;;5015468;28;20903;-76
2022/11/10 13:20:39;;;;;;;5.10;0.90;;;;;;;;;;5015867;28;20124;-77
2022/11/10 13:23:26;;;;;;;4.15;0.88;;;;;;;;;;5016961;28;20065;-76
2022/11/10 13:25:53;;;;;;;8.60;1.35;;;;;;;;;;5017464;28;20065;-77
2022/11/10 13:28:38;;;;;;;6.18;1.42;;;;;;;;;;5015580;28;20105;-77
2022/11/10 13:31:24;;;;;;;7.00;1.02;;;;;;;;;;5017421;28;20021;-77
2022/11/10 13:34:05;;;;;;;12.05;1.77;;;;;;;;;;5016490;28;20037;-75
2022/11/10 13:36:42;;;;;;;6.63;1.52;;;;;;;;;;5016400;28;20159;-77
2022/11/10 13:39:22;;;;;;;6.50;1.25;;;;;;;;;;5027320;28;20048;-77
2022/11/10 13:42:23;;;;;;;6.93;0.75;;;;;;;;;;5025212;28;20121;-77
2022/11/10 13:44:51;;;;;;;6.88;1.17;;;;;;;;;;5010631;28;20053;-75
2022/11/10 13:47:36;;;;;;;5.75;1.05;;;;;;;;;;5016011;28;20041;-76
2022/11/10 13:50:08;;;;;;;4.68;0.93;;;;;;;;;;5025506;28;20587;-76
2022/11/10 13:52:34;;;;;;;8.50;0.95;;;;;;;;;;5015772;28;20049;-77
2022/11/10 13:55:03;;;;;;;7.35;1.30;;;;;;;;;;5016796;28;20537;-77
2022/11/10 13:57:39;;;;;;;5.50;1.40;;;;;;;;;;5025017;28;20037;-77
2022/11/10 14:00:10;;;;;;;4.93;1.02;;;;;;;;;;5016696;28;20116;-75
2022/11/10 14:02:46;;;;;;;6.15;0.95;;;;;;;;;;5013616;28;20044;-77
2022/11/10 14:05:30;;;;;;;7.68;1.88;;;;;;;;;;5031813;28;20132;-76
2022/11/10 14:08:05;;;;;;;8.43;1.42;;;;;;;;;;5016682;28;20057;-76
2022/11/10 14:10:38;;;;;;;13.88;2.05;;;;;;;;;;5014847;28;20072;-77
2022/11/10 14:13:06;;;;;;;4.35;1.60;;;;;;;;;;5017168;28;20037;-77
2022/11/10 14:15:40;;;;;;;7.97;1.60;;;;;;;;;;5016048;28;20121;-76
2022/11/10 14:18:23;;;;;;;7.03;1.58;;;;;;;;;;5027317;28;20049;-76
2022/11/10 14:20:59;;;;;;;4.82;1.98;;;;;;;;;;5015916;28;20068;-77
2022/11/10 14:23:28;;;;;;;6.72;1.63;;;;;;;;;;5030918;28;20037;-76
2022/11/10 14:26:15;;;;;;;6.78;1.70;;;;;;;;;;5026247;28;20065;-75
2022/11/10 14:28:41;;;;;;;6.78;2.55;;;;;;;;;;5027585;28;20462;-76
2022/11/10 14:31:16;;;;;;;6.05;2.25;;;;;;;;;;5023076;28;20127;-76
2022/11/10 14:33:42;;;;;;;4.63;1.48;;;;;;;;;;5021944;28;20029;-77
2022/11/10 14:36:08;;;;;;;7.70;2.50;;;;;;;;;;5014819;28;20038;-77
2022/11/10 14:38:36;;;;;;;4.78;1.55;;;;;;;;;;5022165;28;20037;-76
2022/11/10 14:41:03;;;;;;;5.50;1.98;;;;;;;;;;5013927;28;20077;-77
2022/11/10 14:43:33;;;;;;;8.18;1.33;;;;;;;;;;5015130;28;20036;-77
2022/11/10 14:45:59;;;;;;;4.85;1.25;;;;;;;;;;5022767;28;20256;-77
2022/11/10 14:48:29;;;;;;;5.75;1.00;;;;;;;;;;5015358;28;20034;-76
2022/11/10 14:51:01;;;;;;;6.93;1.60;;;;;;;;;;5022210;28;20390;-77
2022/11/10 14:53:28;;;;;;;6.22;2.15;;;;;;;;;;5014274;28;20048;-76
2022/11/10 14:55:55;;;;;;;8.82;1.30;;;;;;;;;;5025170;28;20045;-76
2022/11/10 14:58:24;;;;;;;5.80;1.25;;;;;;;;;;5024908;28;20029;-77